Weather at Cam Ranh International Airport / Cam Ranh Air Base

Public forecast

Using degrees Celsius for public forecast. Weather courtesy of forecast.io.

Current aviation weather report (METAR) for Cam Ranh International Airport / Cam Ranh Air Base

2024/06/25 18:00 (retrieved 20 minutes ago)

VVCR 251800Z 30003KT 250V330 9999 FEW017 SCT070 28/24 Q1007 NOSIG

Aviation forecast (TAF) for Cam Ranh International Airport / Cam Ranh Air Base

2024/06/25 18:00 (retrieved 20 minutes ago)

TAF VVCR 251700Z 2518/2618 24007KT 9999 FEW017 BECMG 2603/2604 14010KT TEMPO 2609/2612 TS SCT013 FEW015CB SCT060